Ninoy Aquino International Airport
RPLL : now visible

Airfield :











YOU CAN JOIN US ON...

 
LOGIN :

Register | Disclaimer

   EN    FR    IT 

 









Legend :    VFR   Marginal VFR   IFR   Intensive IFR   Very Intensive IFR
Visi :
Ceiling :
>= 8 km
>= 3000ft
5 to 8 km
1000 to 3000 ft
1500m to 5 km
500 to 1000 ft
800 to 1500m
200 to 500 ft
< 800m
< 200 ft
Symbols :   Thunderstorms  Fog  Heavy snow  Heavy precipitations  Wind > 20 kt






- Airport Elevation : 75 ft
- IATA code : MNL


RPLL - Ninoy Aquino International

CURRENT METAR :
  • 201900Z 07004KT 9999 SCT023 BKN100 27/25 Q1008 NOSIG RMK A2977

EXPIRED METARs :
  • 201800Z VRB03KT 9999 SCT023 BKN100 28/25 Q1008 NOSIG RMK A2977
  • 201700Z 13003KT 100V180 9999 SCT023 BKN100 28/25 Q1008 NOSIG RMK A2977

TAF TAF RPLL
Valid from the 20 at 18:00 until the 22 at 00:00 UTC


201700Z 2018/2124 11006KT 9999 FEW023 SCT090 BKN300 TX30/2106Z TN26/2021Z
TEMPO 2018/2024 VRB03KT -SHRA SCT020 BKN100
TEMPO 2100/2106 13010KT FEW023 BKN100



MET'MAP, your aeronautical weather chart ! - Copyright ORBIFLY December 2007 - Disclaimer

ORBIFLY MET'MAP TEAM :

Programming & Development : Alexandra Zaïnal
Concept & Development : Baudouin d'Aumeries
Co-Development & Prog : Marc-Olivier Méhu
Technical & hardware support : Manuel Goepfert

Contact : metmap@orbifly.com




SOURCES & CREDITS :

   NOAA       Earth
Advisory